createdAt,value
2019-04-05T00:01:00.491Z,52.50
2019-04-05T00:03:28.855Z,52.50
2019-04-05T00:05:57.223Z,52.60
2019-04-05T00:08:25.592Z,52.50
2019-04-05T00:10:53.935Z,52.60
2019-04-05T00:13:22.320Z,52.50
2019-04-05T00:15:50.692Z,52.50
2019-04-05T00:18:19.048Z,52.50
2019-04-05T00:20:47.423Z,52.50
2019-04-05T00:23:15.771Z,52.50
2019-04-05T00:25:44.147Z,52.50
2019-04-05T00:28:12.493Z,52.40
2019-04-05T00:30:42.492Z,52.60
2019-04-05T00:33:10.854Z,52.60
2019-04-05T00:35:39.227Z,52.70
2019-04-05T00:38:07.580Z,52.60
2019-04-05T00:40:35.950Z,52.60
2019-04-05T00:43:04.315Z,52.60
2019-04-05T00:45:32.679Z,52.60
2019-04-05T00:48:01.047Z,52.60
2019-04-05T00:50:29.402Z,52.60
2019-04-05T00:52:57.767Z,52.60
2019-04-05T00:55:26.138Z,52.70
2019-04-05T00:57:54.499Z,52.70
2019-04-05T01:00:22.853Z,52.70
2019-04-05T01:02:51.271Z,52.80
2019-04-05T01:05:19.606Z,52.80
2019-04-05T01:07:47.977Z,52.80
2019-04-05T01:10:16.335Z,52.80
2019-04-05T01:12:45.735Z,52.80
2019-04-05T01:15:14.180Z,52.80
2019-04-05T01:17:42.549Z,52.80
2019-04-05T01:20:10.918Z,52.80
2019-04-05T01:22:39.294Z,52.90
2019-04-05T01:25:07.650Z,52.80
2019-04-05T01:27:36.099Z,52.80
2019-04-05T01:30:06.877Z,52.90
2019-04-05T01:32:35.243Z,52.90
2019-04-05T01:35:04.854Z,52.90
2019-04-05T01:37:33.216Z,52.90
2019-04-05T01:40:01.642Z,52.90
2019-04-05T01:42:30.371Z,52.90
2019-04-05T01:44:58.801Z,52.90
2019-04-05T01:47:27.166Z,52.90
2019-04-05T01:49:55.523Z,52.90
2019-04-05T01:52:23.877Z,53.60
2019-04-05T01:54:52.244Z,52.90
2019-04-05T01:57:20.599Z,52.90
2019-04-05T01:59:48.975Z,53.00
2019-04-05T02:02:17.332Z,52.90
2019-04-05T02:04:45.710Z,53.00
2019-04-05T02:07:14.065Z,52.90
2019-04-05T02:09:42.443Z,53.00
2019-04-05T02:12:10.801Z,53.00
2019-04-05T02:14:39.188Z,52.90
2019-04-05T02:17:07.547Z,53.00
2019-04-05T02:19:35.903Z,53.00
2019-04-05T02:22:04.277Z,53.00
2019-04-05T02:24:32.639Z,53.00
2019-04-05T02:27:01.001Z,53.00
2019-04-05T02:29:29.367Z,53.00
2019-04-05T02:31:57.724Z,53.10
2019-04-05T02:34:26.097Z,53.10
2019-04-05T02:36:54.473Z,53.10
2019-04-05T02:39:22.853Z,53.00
2019-04-05T02:41:51.206Z,53.10
2019-04-05T02:44:19.956Z,53.10
2019-04-05T02:46:48.317Z,53.10
2019-04-05T02:49:16.671Z,53.10
2019-04-05T02:51:45.113Z,53.10
2019-04-05T02:54:13.859Z,53.10
2019-04-05T02:56:42.233Z,53.00
2019-04-05T02:59:10.921Z,53.10
2019-04-05T03:01:39.279Z,53.00
2019-04-05T03:04:07.636Z,53.00
2019-04-05T03:06:36.072Z,53.00
2019-04-05T03:09:06.045Z,53.00
2019-04-05T03:11:34.419Z,53.10
2019-04-05T03:14:02.800Z,53.10
2019-04-05T03:16:41.039Z,53.20
2019-04-05T03:19:06.822Z,53.30
2019-04-05T03:21:37.020Z,53.30
2019-04-05T03:24:06.059Z,53.20
2019-04-05T03:26:36.807Z,53.20
2019-04-05T03:29:08.386Z,53.30
2019-04-05T03:31:36.809Z,53.30
2019-04-05T03:34:05.206Z,53.40
2019-04-05T03:36:33.544Z,53.30
2019-04-05T03:39:01.911Z,53.30
2019-04-05T03:41:30.288Z,53.40
2019-04-05T03:43:58.644Z,53.40
2019-04-05T03:46:27.015Z,53.50
2019-04-05T03:48:55.391Z,53.50
2019-04-05T03:51:24.140Z,53.50
2019-04-05T03:53:52.477Z,53.60
2019-04-05T03:56:20.841Z,53.60
2019-04-05T03:58:49.215Z,53.50
2019-04-05T04:01:17.603Z,53.70
2019-04-05T04:03:45.952Z,53.50
2019-04-05T04:06:14.404Z,53.60
2019-04-05T04:08:42.776Z,53.50
2019-04-05T04:11:11.123Z,53.60
2019-04-05T04:13:39.480Z,53.60
2019-04-05T04:16:07.851Z,53.60
2019-04-05T04:18:36.280Z,53.60
2019-04-05T04:21:25.745Z,53.60
2019-04-05T04:23:54.127Z,53.70
2019-04-05T04:26:22.488Z,53.70
2019-04-05T04:28:50.844Z,53.70
2019-04-05T04:31:19.222Z,53.60
2019-04-05T04:33:47.744Z,53.70
2019-04-05T04:36:16.113Z,54.40
2019-04-05T04:38:44.473Z,53.60
2019-04-05T04:41:12.851Z,53.70
2019-04-05T04:43:41.221Z,53.70
2019-04-05T04:46:09.578Z,53.70
2019-04-05T04:48:37.950Z,53.80
2019-04-05T04:51:06.319Z,53.80
2019-04-05T04:53:34.682Z,53.80
2019-04-05T04:56:03.042Z,53.80
2019-04-05T04:58:31.429Z,53.90
2019-04-05T05:00:59.788Z,53.80
2019-04-05T05:03:28.164Z,53.90
2019-04-05T05:05:56.549Z,53.90
2019-04-05T05:08:25.233Z,54.00
2019-04-05T05:10:53.590Z,53.90
2019-04-05T05:13:21.944Z,53.90
2019-04-05T05:15:50.321Z,54.00
2019-04-05T05:18:18.675Z,54.60
2019-04-05T05:20:47.068Z,54.00
2019-04-05T05:23:15.411Z,54.00
2019-04-05T05:25:46.711Z,54.10
2019-04-05T05:28:13.808Z,54.10
2019-04-05T05:30:42.165Z,54.10
2019-04-05T05:33:10.544Z,54.20
2019-04-05T05:35:38.903Z,54.20
2019-04-05T05:38:07.277Z,54.30
2019-04-05T05:40:35.718Z,54.40
2019-04-05T05:43:04.103Z,54.40
2019-04-05T05:45:32.488Z,54.40
2019-04-05T05:48:00.852Z,54.40
2019-04-05T05:50:29.231Z,54.40
2019-04-05T05:52:57.661Z,54.30
2019-04-05T05:55:26.035Z,54.30
2019-04-05T05:57:56.166Z,54.20
2019-04-05T06:00:24.940Z,54.20
2019-04-05T06:02:53.324Z,54.20
2019-04-05T06:05:21.675Z,54.20
2019-04-05T06:07:50.056Z,54.20
2019-04-05T06:10:18.524Z,54.30
2019-04-05T06:12:46.870Z,54.20
2019-04-05T06:15:15.308Z,54.30
2019-04-05T06:17:43.685Z,54.30
2019-04-05T06:20:12.060Z,54.30
2019-04-05T06:22:40.803Z,54.40
2019-04-05T06:25:09.162Z,54.50
2019-04-05T06:27:37.539Z,54.40
2019-04-05T06:30:06.701Z,54.50
2019-04-05T06:32:35.056Z,54.40
2019-04-05T06:35:04.400Z,54.60
2019-04-05T06:37:32.786Z,54.40
2019-04-05T06:40:01.156Z,54.50
2019-04-05T06:42:29.504Z,54.50
2019-04-05T06:44:57.876Z,54.40
2019-04-05T06:47:26.229Z,54.50
2019-04-05T06:49:54.623Z,54.50
2019-04-05T06:52:22.985Z,54.50
2019-04-05T06:54:51.343Z,54.50
2019-04-05T06:57:19.732Z,54.50
2019-04-05T06:59:48.108Z,54.50
2019-04-05T07:02:18.451Z,54.50
2019-04-05T07:04:46.567Z,54.60
2019-04-05T07:07:17.676Z,54.60
2019-04-05T07:09:44.941Z,54.60
2019-04-05T07:12:13.297Z,54.60
2019-04-05T07:14:41.651Z,54.60
2019-04-05T07:17:10.034Z,54.80
2019-04-05T07:19:38.391Z,54.70
2019-04-05T07:22:06.748Z,54.90
2019-04-05T07:24:35.120Z,54.90
2019-04-05T07:27:03.480Z,54.90
2019-04-05T07:29:31.860Z,54.90
2019-04-05T07:32:00.228Z,54.90
2019-04-05T07:34:28.613Z,54.90
2019-04-05T07:36:56.979Z,54.90
2019-04-05T07:39:25.356Z,54.90
2019-04-05T07:41:53.716Z,54.80
2019-04-05T07:44:22.110Z,54.80
2019-04-05T07:46:50.472Z,54.90
2019-04-05T07:49:18.828Z,55.00
2019-04-05T07:51:47.199Z,55.00
2019-04-05T07:54:15.579Z,54.90
2019-04-05T07:56:46.211Z,54.90
2019-04-05T07:59:14.438Z,54.90
2019-04-05T08:01:42.736Z,55.00
2019-04-05T08:04:11.108Z,55.10
2019-04-05T08:06:39.481Z,55.10
2019-04-05T08:09:10.196Z,55.10
2019-04-05T08:11:38.572Z,55.00
2019-04-05T08:14:06.952Z,54.90
2019-04-05T08:16:35.324Z,54.90
2019-04-05T08:19:03.693Z,54.90
2019-04-05T08:21:32.056Z,54.90
2019-04-05T08:24:00.431Z,55.00
2019-04-05T08:26:28.811Z,55.10
2019-04-05T08:28:57.181Z,55.30
2019-04-05T08:31:25.951Z,55.30
2019-04-05T08:33:54.307Z,55.30
2019-04-05T08:36:22.700Z,55.50
2019-04-05T08:38:51.072Z,55.60
2019-04-05T08:41:19.489Z,55.60
2019-04-05T08:43:47.818Z,55.70
2019-04-05T08:46:16.179Z,55.60
2019-04-05T08:48:44.558Z,55.60
2019-04-05T08:51:12.934Z,55.30
2019-04-05T08:53:41.298Z,55.40
2019-04-05T08:56:09.696Z,55.30
2019-04-05T08:58:38.062Z,55.30
2019-04-05T09:01:06.413Z,55.30
2019-04-05T09:03:34.783Z,55.30
2019-04-05T09:06:03.159Z,55.30
2019-04-05T09:08:31.520Z,55.20
2019-04-05T09:10:59.886Z,55.30
2019-04-05T09:13:28.262Z,55.10
2019-04-05T09:15:56.620Z,55.10
2019-04-05T09:18:25.011Z,55.00
2019-04-05T09:20:53.365Z,54.90
2019-04-05T09:23:21.725Z,55.00
2019-04-05T09:25:50.105Z,55.20
2019-04-05T09:28:18.484Z,55.30
2019-04-05T09:30:46.870Z,55.40
2019-04-05T09:33:15.237Z,55.60
2019-04-05T09:35:43.984Z,55.60
2019-04-05T09:38:12.340Z,55.60
2019-04-05T09:40:40.702Z,55.60
2019-04-05T09:43:09.083Z,55.50
2019-04-05T09:45:37.437Z,55.40
2019-04-05T09:48:08.975Z,55.30
2019-04-05T09:50:37.336Z,55.40
2019-04-05T09:53:05.701Z,55.50
2019-04-05T09:55:34.072Z,55.50
2019-04-05T09:58:02.555Z,55.50
2019-04-05T10:00:30.967Z,55.50
2019-04-05T10:02:59.352Z,55.50
2019-04-05T10:05:27.875Z,55.50
2019-04-05T10:07:56.239Z,55.40
2019-04-05T10:10:24.628Z,55.40
2019-04-05T10:12:52.984Z,55.30
2019-04-05T10:15:21.844Z,55.40
2019-04-05T10:17:50.596Z,55.60
2019-04-05T10:20:19.169Z,55.50
2019-04-05T10:22:47.536Z,55.60
2019-04-05T10:25:15.965Z,55.60
2019-04-05T10:27:44.272Z,55.70
2019-04-05T10:30:12.713Z,55.90
2019-04-05T10:32:41.111Z,55.90
2019-04-05T10:35:09.462Z,55.80
2019-04-05T10:37:37.848Z,56.00
2019-04-05T10:40:07.248Z,56.00
2019-04-05T10:42:36.559Z,56.20
2019-04-05T10:45:07.685Z,56.30
2019-04-05T10:47:36.039Z,56.30
2019-04-05T10:50:07.064Z,56.20
2019-04-05T10:52:35.431Z,56.30
2019-04-05T10:55:04.865Z,56.30
2019-04-05T10:57:33.221Z,56.30
2019-04-05T11:00:01.616Z,56.30
2019-04-05T11:02:29.980Z,56.20
2019-04-05T11:04:58.335Z,56.30
2019-04-05T11:07:26.727Z,56.20
2019-04-05T11:09:55.147Z,56.30
2019-04-05T11:12:23.528Z,56.30
2019-04-05T11:14:51.905Z,56.10
2019-04-05T11:17:20.279Z,56.10
2019-04-05T11:19:48.641Z,56.00
2019-04-05T11:22:20.207Z,56.00
2019-04-05T11:24:47.031Z,56.00
2019-04-05T11:27:15.389Z,56.00
2019-04-05T11:29:43.769Z,56.10
2019-04-05T11:32:12.173Z,56.10
2019-04-05T11:34:40.603Z,56.20
2019-04-05T11:37:08.985Z,56.30
2019-04-05T11:39:37.347Z,56.30
2019-04-05T11:42:05.717Z,56.40
2019-04-05T11:44:34.167Z,56.40
2019-04-05T11:47:03.380Z,56.40
2019-04-05T11:49:31.819Z,56.40
2019-04-05T11:52:00.176Z,56.40
2019-04-05T11:54:28.616Z,56.50
2019-04-05T11:56:56.981Z,56.40
2019-04-05T11:59:25.380Z,56.50
2019-04-05T12:01:55.371Z,56.40
2019-04-05T12:04:23.772Z,56.50
2019-04-05T12:06:52.579Z,56.50
2019-04-05T12:09:21.072Z,56.50
2019-04-05T12:11:49.451Z,56.40
2019-04-05T12:14:29.525Z,56.50
2019-04-05T12:16:47.845Z,56.50
2019-04-05T12:19:16.213Z,56.50
2019-04-05T12:21:44.588Z,56.20
2019-04-05T12:24:12.967Z,56.00
2019-04-05T12:26:42.798Z,55.90
2019-04-05T12:29:11.475Z,55.80
2019-04-05T12:31:39.848Z,55.70
2019-04-05T12:34:08.206Z,55.80
2019-04-05T12:36:36.583Z,55.90
2019-04-05T12:39:08.256Z,56.20
2019-04-05T12:41:40.382Z,56.30
2019-04-05T12:44:06.772Z,56.30
2019-04-05T12:46:35.173Z,56.20
2019-04-05T12:49:03.537Z,56.20
2019-04-05T12:51:31.983Z,56.10
2019-04-05T12:54:00.366Z,56.20
2019-04-05T12:56:28.729Z,56.10
2019-04-05T12:58:57.091Z,56.10
2019-04-05T13:01:25.451Z,56.10
2019-04-05T13:03:53.833Z,56.20
2019-04-05T13:06:22.615Z,56.20
2019-04-05T13:08:51.524Z,55.90
2019-04-05T13:11:20.155Z,56.40
2019-04-05T13:13:48.502Z,56.20
2019-04-05T13:16:16.877Z,56.20
2019-04-05T13:18:45.232Z,56.30
2019-04-05T13:21:15.581Z,56.50
2019-04-05T13:23:43.623Z,56.50
2019-04-05T13:26:12.515Z,56.60
2019-04-05T13:28:41.056Z,56.50
2019-04-05T13:31:09.417Z,56.50
2019-04-05T13:33:37.788Z,56.60
2019-04-05T13:36:08.386Z,56.70
2019-04-05T13:38:36.189Z,56.90
2019-04-05T13:41:04.549Z,57.00
2019-04-05T13:43:32.922Z,56.90
2019-04-05T13:46:01.288Z,56.90
2019-04-05T13:48:29.649Z,56.90
2019-04-05T13:50:58.027Z,56.80
2019-04-05T13:53:26.404Z,56.80
2019-04-05T13:55:54.785Z,57.10
2019-04-05T13:58:23.160Z,56.90
2019-04-05T14:00:51.517Z,56.80
2019-04-05T14:03:20.918Z,56.90
2019-04-05T14:05:50.113Z,56.90
2019-04-05T14:08:19.633Z,56.70
2019-04-05T14:10:47.984Z,56.70
2019-04-05T14:13:16.352Z,56.70
2019-04-05T14:15:44.741Z,56.70
2019-04-05T14:18:15.249Z,56.80
2019-04-05T14:20:43.118Z,56.90
2019-04-05T14:23:11.500Z,57.20
2019-04-05T14:25:39.873Z,57.20
2019-04-05T14:28:08.247Z,57.20
2019-04-05T14:30:36.625Z,57.20
2019-04-05T14:33:04.996Z,57.20
2019-04-05T14:35:33.353Z,57.30
2019-04-05T14:38:01.723Z,57.30
2019-04-05T14:40:32.909Z,57.30
2019-04-05T14:43:00.093Z,57.30
2019-04-05T14:45:28.473Z,57.40
2019-04-05T14:47:58.422Z,57.40
2019-04-05T14:50:28.213Z,57.40
2019-04-05T14:53:00.767Z,57.40
2019-04-05T14:55:27.594Z,57.40
2019-04-05T14:57:56.897Z,57.40
2019-04-05T15:00:25.254Z,57.50
2019-04-05T15:02:53.615Z,57.50
2019-04-05T15:05:21.982Z,57.60
2019-04-05T15:07:51.173Z,57.70
2019-04-05T15:10:20.236Z,57.70
2019-04-05T15:12:48.584Z,57.60
2019-04-05T15:15:16.968Z,57.60
2019-04-05T15:17:48.293Z,57.70
2019-04-05T15:20:15.336Z,57.70
2019-04-05T15:22:43.712Z,57.70
2019-04-05T15:25:16.598Z,57.60
2019-04-05T15:27:42.638Z,57.70
2019-04-05T15:30:10.997Z,57.70
2019-04-05T15:32:39.630Z,57.70
2019-04-05T15:35:08.227Z,57.70
2019-04-05T15:37:37.629Z,57.80
2019-04-05T15:40:07.014Z,57.80
2019-04-05T15:42:35.367Z,57.80
2019-04-05T15:45:07.904Z,57.90
2019-04-05T15:47:36.255Z,57.90
2019-04-05T15:50:06.768Z,58.00
2019-04-05T15:52:35.401Z,58.20
2019-04-05T15:55:06.165Z,58.10
2019-04-05T15:57:34.519Z,58.20
2019-04-05T16:00:04.685Z,58.10
2019-04-05T16:02:33.624Z,58.20
2019-04-05T16:05:01.982Z,58.20
2019-04-05T16:07:30.391Z,58.20
2019-04-05T16:09:58.753Z,58.30
2019-04-05T16:12:27.123Z,58.30
2019-04-05T16:14:55.483Z,58.30
2019-04-05T16:17:23.858Z,58.30
2019-04-05T16:19:52.224Z,58.40
2019-04-05T16:22:30.852Z,58.30
2019-04-05T16:24:50.624Z,58.40
2019-04-05T16:27:18.973Z,58.40
2019-04-05T16:29:47.349Z,58.50
2019-04-05T16:32:15.727Z,58.50
2019-04-05T16:34:44.098Z,58.50
2019-04-05T16:37:12.450Z,58.50
2019-04-05T16:39:40.820Z,58.50
2019-04-05T16:42:10.340Z,58.50
2019-04-05T16:44:38.864Z,58.50
2019-04-05T16:47:07.247Z,58.40
2019-04-05T16:49:35.604Z,58.50
2019-04-05T16:52:03.981Z,58.50
2019-04-05T16:54:32.328Z,58.60
2019-04-05T16:57:00.704Z,58.60
2019-04-05T16:59:29.061Z,58.60
2019-04-05T17:01:57.423Z,58.60
2019-04-05T17:04:25.796Z,59.20
2019-04-05T17:06:54.148Z,58.60
2019-04-05T17:09:22.928Z,58.60
2019-04-05T17:11:51.294Z,58.60
2019-04-05T17:14:19.650Z,58.70
2019-04-05T17:16:48.018Z,58.70
2019-04-05T17:19:16.368Z,58.70
2019-04-05T17:21:45.032Z,58.70
2019-04-05T17:24:13.388Z,58.80
2019-04-05T17:26:41.817Z,58.80
2019-04-05T17:29:10.184Z,58.80
2019-04-05T17:31:38.547Z,58.90
2019-04-05T17:34:06.917Z,58.90
2019-04-05T17:36:35.271Z,58.90
2019-04-05T17:39:05.097Z,58.80
2019-04-05T17:41:33.439Z,58.80
2019-04-05T17:44:01.809Z,58.80
2019-04-05T17:46:30.164Z,58.90
2019-04-05T17:48:58.537Z,58.90
2019-04-05T17:51:26.907Z,58.90
2019-04-05T17:53:55.261Z,59.00
2019-04-05T17:56:23.649Z,58.90
2019-04-05T17:58:52.000Z,58.90
2019-04-05T18:01:20.359Z,58.90
2019-04-05T18:03:48.738Z,58.90
2019-04-05T18:06:17.120Z,58.90
2019-04-05T18:08:45.476Z,59.00
2019-04-05T18:11:13.845Z,58.90
2019-04-05T18:13:42.220Z,59.00
2019-04-05T18:16:10.593Z,59.20
2019-04-05T18:18:38.946Z,59.10
2019-04-05T18:21:07.332Z,59.20
2019-04-05T18:23:35.705Z,59.20
2019-04-05T18:26:04.053Z,59.80
2019-04-05T18:28:32.435Z,59.20
2019-04-05T18:31:00.804Z,59.20
2019-04-05T18:33:29.181Z,59.30
2019-04-05T18:35:57.532Z,59.30
2019-04-05T18:38:26.256Z,59.30
2019-04-05T18:40:54.665Z,59.30
2019-04-05T18:43:23.019Z,59.30
2019-04-05T18:45:51.388Z,59.30
2019-04-05T18:48:19.744Z,59.40
2019-04-05T18:50:48.617Z,59.40
2019-04-05T18:53:17.179Z,59.50
2019-04-05T18:55:45.560Z,59.50
2019-04-05T18:58:13.926Z,59.60
2019-04-05T19:00:42.282Z,59.70
2019-04-05T19:03:10.662Z,59.70
2019-04-05T19:05:39.023Z,59.60
2019-04-05T19:08:07.667Z,59.60
2019-04-05T19:10:37.292Z,59.70
2019-04-05T19:13:06.044Z,59.70
2019-04-05T19:15:34.420Z,59.70
2019-04-05T19:18:03.276Z,59.90
2019-04-05T19:20:31.635Z,59.80
2019-04-05T19:22:59.998Z,59.80
2019-04-05T19:25:28.373Z,59.80
2019-04-05T19:27:56.737Z,59.90
2019-04-05T19:50:25.261Z,60.20
2019-04-05T19:52:53.616Z,60.20
2019-04-05T19:55:21.994Z,60.20
2019-04-05T19:57:50.348Z,60.30
2019-04-05T20:00:19.190Z,60.30
2019-04-05T20:02:47.554Z,60.30
2019-04-05T20:05:16.277Z,60.30
2019-04-05T20:07:44.654Z,60.30
2019-04-05T20:10:13.008Z,60.30
2019-04-05T20:12:41.384Z,60.30
2019-04-05T20:15:09.739Z,60.30
2019-04-05T20:17:38.123Z,60.30
2019-04-05T20:20:07.109Z,60.40
2019-04-05T20:22:35.479Z,60.40
2019-04-05T20:25:05.680Z,60.30
2019-04-05T20:27:34.032Z,60.50
2019-04-05T20:30:03.456Z,60.70
2019-04-05T20:32:31.800Z,60.00
2019-04-05T20:35:00.163Z,60.10
2019-04-05T20:37:28.544Z,60.30
2019-04-05T20:39:56.930Z,60.40
2019-04-05T20:42:25.290Z,60.40
2019-04-05T20:44:54.516Z,60.60
2019-04-05T20:47:22.900Z,60.70
2019-04-05T20:49:51.252Z,60.60
2019-04-05T20:52:19.623Z,60.60
2019-04-05T20:54:47.990Z,60.60
2019-04-05T20:57:16.356Z,60.60
2019-04-05T20:59:44.746Z,60.60
2019-04-05T21:02:13.091Z,60.50
2019-04-05T21:04:41.464Z,60.60
2019-04-05T21:07:09.879Z,60.70
2019-04-05T21:09:38.257Z,60.70
2019-04-05T21:12:06.605Z,61.50
2019-04-05T21:14:34.947Z,60.80
2019-04-05T21:17:03.324Z,60.80
2019-04-05T21:19:31.672Z,60.70
2019-04-05T21:22:00.053Z,60.70
2019-04-05T21:24:36.010Z,60.70
2019-04-05T21:26:58.411Z,60.60
2019-04-05T21:29:26.790Z,60.50
2019-04-05T21:31:55.131Z,60.60
2019-04-05T21:34:23.511Z,60.70
2019-04-05T21:36:51.856Z,60.70
2019-04-05T21:39:20.233Z,60.70
2019-04-05T21:41:48.600Z,60.70
2019-04-05T21:44:16.975Z,60.70
2019-04-05T21:46:45.335Z,60.60
2019-04-05T21:49:13.698Z,60.60
2019-04-05T21:51:42.064Z,60.70
2019-04-05T21:54:10.421Z,60.80
2019-04-05T21:56:38.784Z,60.90
2019-04-05T21:59:07.146Z,60.90
2019-04-05T22:01:35.504Z,60.90
2019-04-05T22:04:04.637Z,60.90
2019-04-05T22:06:32.997Z,60.90
2019-04-05T22:09:01.376Z,60.90
2019-04-05T22:11:29.741Z,60.80
2019-04-05T22:13:58.091Z,60.80
2019-04-05T22:16:26.442Z,60.90
2019-04-05T22:18:54.797Z,61.00
2019-04-05T22:21:23.152Z,61.00
2019-04-05T22:23:51.525Z,61.00
2019-04-05T22:26:19.904Z,60.90
2019-04-05T22:28:48.245Z,60.90
2019-04-05T22:31:16.616Z,61.00
2019-04-05T22:33:44.990Z,61.10
2019-04-05T22:36:13.344Z,61.00
2019-04-05T22:38:41.785Z,61.00
2019-04-05T22:41:10.081Z,61.10
2019-04-05T22:43:38.430Z,61.10
2019-04-05T22:46:06.813Z,61.10
2019-04-05T22:48:35.166Z,61.10
2019-04-05T22:51:03.535Z,61.10
2019-04-05T22:53:31.932Z,61.10
2019-04-05T22:56:00.243Z,61.20
2019-04-05T22:58:28.604Z,61.20
2019-04-05T23:00:56.955Z,61.10
2019-04-05T23:03:25.325Z,61.10
2019-04-05T23:05:53.677Z,61.10
2019-04-05T23:08:22.051Z,61.10
2019-04-05T23:10:50.416Z,61.10
2019-04-05T23:13:18.779Z,61.10
2019-04-05T23:15:47.143Z,61.20
2019-04-05T23:18:15.506Z,61.20
2019-04-05T23:20:43.874Z,61.30
2019-04-05T23:23:12.222Z,61.30
2019-04-05T23:25:40.588Z,61.70
2019-04-05T23:28:08.939Z,61.30
2019-04-05T23:30:37.311Z,61.40
2019-04-05T23:33:05.664Z,61.40
2019-04-05T23:35:34.042Z,61.30
2019-04-05T23:38:02.404Z,61.40
2019-04-05T23:40:30.796Z,61.20
2019-04-05T23:42:59.129Z,61.20
2019-04-05T23:45:27.477Z,61.10
2019-04-05T23:47:56.318Z,61.10
2019-04-05T23:50:24.664Z,61.30
2019-04-05T23:52:53.371Z,61.30
2019-04-05T23:55:32.541Z,62.10
2019-04-05T23:57:51.747Z,61.40
